Time;durP1;ratioP1;P1;durP2;ratioP2;P2;SDS_P1;SDS_P2;PMS_P1;PMS_P2;Temp;Humidity;BMP_temperature;BMP_pressure;BME280_temperature;BME280_humidity;BME280_pressure;Samples;Min_cycle;Max_cycle;Signal;HPM_P1;HPM_P2
2021/04/10 00:01:09;;;;;;;4.53;2.30;;;7.00;64.10;;;;;;4299809;33;20130;-34
2021/04/10 00:03:35;;;;;;;4.27;2.23;;;7.00;64.20;;;;;;4300230;33;20136;-34
2021/04/10 00:06:02;;;;;;;3.37;2.10;;;7.00;64.40;;;;;;4311793;33;20510;-34
2021/04/10 00:08:29;;;;;;;2.67;1.57;;;7.00;64.50;;;;;;4303277;33;20084;-36
2021/04/10 00:10:55;;;;;;;3.50;2.07;;;7.00;64.40;;;;;;4300879;33;20062;-35
2021/04/10 00:13:22;;;;;;;3.63;2.40;;;6.90;64.50;;;;;;4303139;33;20615;-35
2021/04/10 00:15:49;;;;;;;3.40;2.03;;;7.00;64.60;;;;;;4324651;33;20110;-35
2021/04/10 00:18:16;;;;;;;3.47;2.20;;;7.00;64.40;;;;;;4344758;33;20066;-35
2021/04/10 00:20:43;;;;;;;3.40;3.10;;;7.10;64.20;;;;;;4345050;33;20075;-36
2021/04/10 00:23:10;;;;;;;4.10;1.40;;;7.10;64.10;;;;;;4316322;33;20096;-36
2021/04/10 00:25:36;;;;;;;4.13;2.50;;;7.10;64.10;;;;;;4327812;33;20051;-35
2021/04/10 00:28:03;;;;;;;4.10;2.90;;;7.10;64.00;;;;;;4328773;33;20163;-35
2021/04/10 00:30:29;;;;;;;3.87;2.23;;;7.10;64.00;;;;;;4313817;33;20144;-36
2021/04/10 00:32:56;;;;;;;5.47;2.63;;;7.10;64.10;;;;;;4284914;33;20080;-36
2021/04/10 00:35:23;;;;;;;3.53;2.90;;;7.10;64.10;;;;;;4290587;33;20063;-35
2021/04/10 00:37:49;;;;;;;4.33;3.17;;;7.10;64.10;;;;;;4287482;33;20966;-35
2021/04/10 00:40:16;;;;;;;4.97;2.83;;;7.00;64.40;;;;;;4299851;33;20174;-35
2021/04/10 00:42:42;;;;;;;4.73;3.33;;;6.90;64.60;;;;;;4299348;33;20084;-34
2021/04/10 00:45:09;;;;;;;5.83;3.33;;;6.90;64.70;;;;;;4287690;33;20158;-34
2021/04/10 00:47:36;;;;;;;5.07;3.37;;;6.80;65.10;;;;;;4299036;33;20108;-35
2021/04/10 00:50:03;;;;;;;7.67;4.67;;;6.80;65.20;;;;;;4298958;33;20102;-36
2021/04/10 00:52:30;;;;;;;7.23;4.07;;;6.80;65.10;;;;;;4299824;33;20072;-35
2021/04/10 00:54:56;;;;;;;6.73;4.40;;;6.80;65.10;;;;;;4311095;33;20070;-35
2021/04/10 00:57:23;;;;;;;6.63;3.90;;;6.80;65.10;;;;;;4272403;33;20095;-34
2021/04/10 00:59:49;;;;;;;6.40;3.70;;;6.90;64.90;;;;;;4272634;33;20083;-34
2021/04/10 01:02:16;;;;;;;7.70;5.23;;;6.90;64.90;;;;;;4272910;33;20060;-35
2021/04/10 01:04:42;;;;;;;6.63;5.23;;;7.00;64.70;;;;;;4296151;33;20209;-34
2021/04/10 01:07:09;;;;;;;7.10;4.90;;;6.90;64.80;;;;;;4303455;33;20165;-37
2021/04/10 01:09:36;;;;;;;8.63;6.00;;;6.90;64.90;;;;;;4316318;33;20134;-35
2021/04/10 01:12:46;;;;;;;10.00;5.83;;;6.90;64.90;;;;;;4328244;33;20103;-35
2021/04/10 01:15:27;;;;;;;9.63;5.63;;;6.90;64.90;;;;;;4294403;33;20092;-35
2021/04/10 01:18:08;;;;;;;10.33;6.23;;;7.00;64.70;;;;;;4328379;33;20081;-35
2021/04/10 01:21:13;;;;;;;9.90;4.37;;;7.10;64.60;;;;;;4315805;33;20855;-35
2021/04/10 01:24:29;;;;;;;11.33;6.63;;;7.10;64.70;;;;;;4316238;33;20055;-35
2021/04/10 01:27:08;;;;;;;12.10;8.25;;;7.00;64.50;;;;;;4327999;33;20530;-35
2021/04/10 01:29:41;;;;;;;10.53;7.13;;;7.00;64.60;;;;;;4359710;32;20632;-36
2021/04/10 01:32:07;;;;;;;10.80;7.40;;;7.00;64.70;;;;;;4346953;32;20101;-35
2021/04/10 01:34:40;;;;;;;11.60;8.27;;;7.00;64.70;;;;;;4357440;32;20078;-36
2021/04/10 01:37:25;;;;;;;10.57;7.00;;;7.00;64.70;;;;;;4343769;33;20109;-34
2021/04/10 01:39:51;;;;;;;14.00;8.50;;;7.00;64.70;;;;;;4332001;33;20067;-35
2021/04/10 01:42:24;;;;;;;13.23;8.93;;;7.10;64.60;;;;;;4343801;33;20102;-35
2021/04/10 01:44:51;;;;;;;12.37;8.47;;;7.00;64.70;;;;;;4331677;33;20094;-35
2021/04/10 01:47:18;;;;;;;12.90;9.13;;;7.00;65.00;;;;;;4319579;33;20549;-34
2021/04/10 01:49:46;;;;;;;13.83;9.30;;;7.00;64.80;;;;;;4318086;33;20083;-34
2021/04/10 01:52:13;;;;;;;12.40;9.20;;;7.10;64.80;;;;;;4318838;33;20066;-34
2021/04/10 01:54:40;;;;;;;14.70;9.27;;;7.00;64.90;;;;;;4329775;33;20519;-35
2021/04/10 01:57:07;;;;;;;14.27;8.63;;;7.00;64.90;;;;;;4330170;33;20499;-35
2021/04/10 01:59:35;;;;;;;14.37;8.27;;;7.00;64.90;;;;;;4342847;33;20069;-35
2021/04/10 02:02:02;;;;;;;13.00;8.30;;;7.00;65.10;;;;;;4330568;33;20077;-35
2021/04/10 02:04:32;;;;;;;14.93;9.90;;;7.00;65.00;;;;;;4318369;33;20063;-36
2021/04/10 02:06:58;;;;;;;18.37;11.20;;;7.10;64.80;;;;;;4306506;33;20058;-35
2021/04/10 02:09:25;;;;;;;14.07;9.27;;;7.00;64.70;;;;;;4330636;33;20106;-35
2021/04/10 02:11:51;;;;;;;16.97;10.67;;;7.00;64.70;;;;;;4305551;33;20079;-35
2021/04/10 02:14:18;;;;;;;14.97;9.73;;;7.00;64.90;;;;;;4330406;33;20062;-35
2021/04/10 02:16:44;;;;;;;19.60;11.90;;;7.00;64.90;;;;;;4342239;33;20071;-34
2021/04/10 02:19:11;;;;;;;15.90;10.17;;;6.90;65.20;;;;;;4342268;33;20074;-35
2021/04/10 02:21:40;;;;;;;16.37;10.43;;;6.80;65.50;;;;;;4328544;33;20075;-35
2021/04/10 02:24:09;;;;;;;22.00;14.53;;;6.90;65.30;;;;;;4331605;33;20059;-35
2021/04/10 02:26:36;;;;;;;18.37;11.33;;;6.90;65.20;;;;;;4344645;32;20147;-41
2021/04/10 02:29:03;;;;;;;19.27;12.00;;;6.80;65.80;;;;;;4331151;33;20074;-35
2021/04/10 02:31:54;;;;;;;16.67;10.67;;;6.70;66.10;;;;;;4330919;33;20172;-35
2021/04/10 02:34:27;;;;;;;19.73;12.33;;;6.70;66.10;;;;;;4327665;32;20051;-35
2021/04/10 02:36:54;;;;;;;19.93;12.87;;;6.80;66.40;;;;;;4314921;33;20078;-35
2021/04/10 02:39:20;;;;;;;19.37;13.10;;;6.90;65.60;;;;;;4303294;33;20070;-35
2021/04/10 02:41:49;;;;;;;21.03;11.93;;;6.90;65.50;;;;;;4286221;33;20132;-36
2021/04/10 02:44:16;;;;;;;23.00;13.80;;;6.90;65.60;;;;;;4298164;33;20074;-35
2021/04/10 02:46:50;;;;;;;19.67;10.47;;;6.90;65.40;;;;;;4287046;33;20067;-35
2021/04/10 02:49:39;;;;;;;20.70;11.97;;;7.00;65.60;;;;;;4298269;33;20569;-34
2021/04/10 02:52:06;;;;;;;21.23;13.27;;;7.00;66.00;;;;;;4286616;33;20067;-35
2021/04/10 02:54:46;;;;;;;22.37;13.43;;;7.10;65.20;;;;;;4297990;33;20065;-36
2021/04/10 02:57:15;;;;;;;24.67;13.83;;;7.20;65.00;;;;;;4283876;33;20079;-35
2021/04/10 02:59:46;;;;;;;20.17;10.43;;;7.20;64.70;;;;;;4283567;33;20157;-35
2021/04/10 03:02:13;;;;;;;23.60;15.37;;;7.30;64.70;;;;;;4260439;33;20071;-35
2021/04/10 03:04:41;;;;;;;25.43;15.77;;;7.30;64.50;;;;;;4271250;33;20171;-36
2021/04/10 03:07:08;;;;;;;23.37;14.97;;;7.30;64.60;;;;;;4278781;33;20522;-36
2021/04/10 03:09:41;;;;;;;24.43;16.63;;;7.30;64.70;;;;;;4326846;33;20495;-34
2021/04/10 03:12:14;;;;;;;28.10;16.53;;;7.30;64.80;;;;;;4317302;33;20145;-35
2021/04/10 03:14:41;;;;;;;30.07;17.00;;;7.40;64.60;;;;;;4328834;33;20082;-35
2021/04/10 03:17:15;;;;;;;30.70;16.30;;;7.30;64.60;;;;;;4316855;33;20071;-35
2021/04/10 03:19:43;;;;;;;23.55;11.65;;;7.40;64.70;;;;;;4341872;33;20574;-35
2021/04/10 03:22:14;;;;;;;32.13;16.73;;;7.50;64.60;;;;;;4317061;33;20164;-36
2021/04/10 03:24:41;;;;;;;28.63;14.77;;;7.50;65.10;;;;;;4341327;33;20521;-36
2021/04/10 03:27:07;;;;;;;29.80;18.97;;;7.50;64.50;;;;;;4317527;32;20546;-35
2021/04/10 03:29:35;;;;;;;23.23;11.70;;;7.60;64.40;;;;;;4332819;32;20082;-36
2021/04/10 03:32:01;;;;;;;28.10;14.40;;;7.70;64.30;;;;;;4344931;32;20529;-36
2021/04/10 03:34:28;;;;;;;26.60;11.83;;;7.80;64.00;;;;;;4357750;32;20099;-36
2021/04/10 03:36:54;;;;;;;33.97;18.43;;;7.80;64.00;;;;;;4317951;33;20075;-36
2021/04/10 03:39:21;;;;;;;21.57;10.43;;;7.90;63.60;;;;;;4341995;33;20059;-36
2021/04/10 03:41:47;;;;;;;31.30;17.40;;;8.00;63.60;;;;;;4342267;33;20527;-36
2021/04/10 03:44:14;;;;;;;30.70;18.73;;;8.00;63.40;;;;;;4342282;33;20063;-37
2021/04/10 03:46:40;;;;;;;22.53;10.10;;;8.10;63.20;;;;;;4344254;32;20102;-36
2021/04/10 03:49:07;;;;;;;34.93;18.87;;;8.10;63.20;;;;;;4343935;32;20061;-37
2021/04/10 03:51:34;;;;;;;35.57;18.43;;;8.10;63.10;;;;;;4342304;33;20591;-36
2021/04/10 03:54:01;;;;;;;26.63;14.67;;;8.10;63.70;;;;;;4342138;33;20078;-36
2021/04/10 03:56:27;;;;;;;32.87;19.27;;;8.20;63.00;;;;;;4343715;32;20056;-36
2021/04/10 03:58:54;;;;;;;33.77;19.80;;;8.20;63.00;;;;;;4344119;32;20106;-36
2021/04/10 04:01:20;;;;;;;28.20;15.47;;;8.20;63.20;;;;;;4346024;32;20142;-36
2021/04/10 04:03:47;;;;;;;30.53;13.73;;;8.20;63.30;;;;;;4346386;32;20070;-35
2021/04/10 04:06:13;;;;;;;30.77;14.97;;;8.20;63.30;;;;;;4346123;32;20158;-37
2021/04/10 04:08:40;;;;;;;36.63;19.30;;;8.20;63.30;;;;;;4346295;32;20553;-35
2021/04/10 04:11:06;;;;;;;30.17;14.20;;;8.30;63.10;;;;;;4345068;33;20123;-35
2021/04/10 04:13:33;;;;;;;38.43;19.40;;;8.40;62.90;;;;;;4329076;33;20067;-36
2021/04/10 04:15:59;;;;;;;25.70;13.83;;;8.50;62.70;;;;;;4316159;33;20103;-37
2021/04/10 04:18:26;;;;;;;25.63;9.60;;;8.50;63.30;;;;;;4316495;33;20218;-37
2021/04/10 04:20:52;;;;;;;31.93;15.90;;;8.60;62.60;;;;;;4329021;33;20180;-36
2021/04/10 04:23:19;;;;;;;25.93;14.93;;;8.60;62.40;;;;;;4329014;33;20070;-36
2021/04/10 04:25:45;;;;;;;32.13;18.73;;;8.60;62.30;;;;;;4329046;33;20083;-36
2021/04/10 04:28:12;;;;;;;25.27;11.07;;;8.60;62.20;;;;;;4329166;33;20071;-37
2021/04/10 04:30:38;;;;;;;31.35;18.58;;;8.60;62.30;;;;;;4329060;33;20153;-35
2021/04/10 04:33:05;;;;;;;22.73;12.33;;;8.60;62.30;;;;;;4328613;33;20153;-36
2021/04/10 04:35:31;;;;;;;23.75;12.50;;;8.70;62.20;;;;;;4328691;33;20051;-36
2021/04/10 04:37:58;;;;;;;29.67;18.10;;;8.70;62.20;;;;;;4304014;33;20164;-36
2021/04/10 04:40:24;;;;;;;32.10;18.47;;;8.70;62.30;;;;;;4316130;33;20182;-36
2021/04/10 04:42:51;;;;;;;33.13;17.20;;;8.50;62.60;;;;;;4327953;33;20071;-36
2021/04/10 04:45:17;;;;;;;28.83;18.23;;;8.50;62.80;;;;;;4316045;33;20072;-34
2021/04/10 04:47:44;;;;;;;32.10;19.00;;;8.50;62.80;;;;;;4315803;33;20171;-35
2021/04/10 04:50:11;;;;;;;28.53;16.77;;;8.50;63.00;;;;;;4330768;33;20144;-35
2021/04/10 04:52:38;;;;;;;28.90;16.50;;;8.60;63.00;;;;;;4345491;32;20062;-36
2021/04/10 04:55:05;;;;;;;32.20;18.50;;;8.60;62.90;;;;;;4331587;33;20108;-35
2021/04/10 04:57:32;;;;;;;24.70;13.40;;;8.70;62.70;;;;;;4345763;32;20134;-35
2021/04/10 04:59:58;;;;;;;32.47;19.40;;;8.80;62.70;;;;;;4345370;32;20573;-35
2021/04/10 05:02:25;;;;;;;27.60;13.50;;;8.90;62.30;;;;;;4346079;32;20066;-36
2021/04/10 05:04:51;;;;;;;27.58;13.98;;;9.00;62.20;;;;;;4345673;32;20152;-36
2021/04/10 05:07:17;;;;;;;26.05;16.45;;;9.10;61.80;;;;;;4345542;32;20063;-35
2021/04/10 05:09:44;;;;;;;25.48;14.90;;;9.20;61.80;;;;;;4345626;32;20071;-36
2021/04/10 05:12:11;;;;;;;28.75;17.62;;;9.20;61.40;;;;;;4345304;32;20104;-34
2021/04/10 05:14:38;;;;;;;11.93;5.53;;;9.30;61.50;;;;;;4345075;32;20546;-34
2021/04/10 05:17:04;;;;;;;15.93;8.05;;;9.30;61.40;;;;;;4345053;32;20112;-35
2021/04/10 05:19:31;;;;;;;24.77;11.95;;;9.60;61.20;;;;;;4345270;32;20067;-36
2021/04/10 05:21:57;;;;;;;13.55;6.95;;;9.70;60.80;;;;;;4345024;32;20085;-35
2021/04/10 05:24:23;;;;;;;16.52;7.28;;;9.90;60.50;;;;;;4343029;33;20146;-36
2021/04/10 05:26:50;;;;;;;18.60;10.07;;;10.00;60.20;;;;;;4344712;32;20083;-35
2021/04/10 05:29:17;;;;;;;26.15;15.65;;;10.10;59.90;;;;;;4344496;32;20101;-38
2021/04/10 05:31:43;;;;;;;20.15;12.07;;;10.00;59.00;;;;;;4344811;32;20101;-37
2021/04/10 05:34:10;;;;;;;23.40;14.55;;;9.90;59.30;;;;;;4330407;33;20070;-35
2021/04/10 05:36:36;;;;;;;18.12;11.25;;;9.90;59.40;;;;;;4358470;32;20075;-36
2021/04/10 05:39:03;;;;;;;20.65;13.32;;;10.00;59.70;;;;;;4359102;32;20471;-34
2021/04/10 05:41:29;;;;;;;20.83;12.00;;;10.00;59.40;;;;;;4357709;32;20070;-35
2021/04/10 05:43:56;;;;;;;15.80;10.02;;;10.00;59.20;;;;;;4345678;32;20093;-35
2021/04/10 05:46:23;;;;;;;19.90;11.95;;;10.10;59.10;;;;;;4359255;32;20448;-35
2021/04/10 05:48:50;;;;;;;21.42;13.13;;;10.10;58.70;;;;;;4357766;32;20086;-36
2021/04/10 05:51:16;;;;;;;18.30;9.90;;;10.10;58.70;;;;;;4359688;32;20078;-36
2021/04/10 05:53:44;;;;;;;22.00;11.50;;;10.10;58.70;;;;;;4341495;33;20108;-35
2021/04/10 05:56:11;;;;;;;10.70;6.20;;;10.20;58.60;;;;;;4341820;33;20609;-37
2021/04/10 05:58:38;;;;;;;13.77;6.70;;;10.30;58.60;;;;;;4341528;33;20641;-36
2021/04/10 06:01:05;;;;;;;20.67;12.75;;;10.40;58.20;;;;;;4341978;33;20070;-36
2021/04/10 06:03:32;;;;;;;27.13;14.40;;;10.50;57.90;;;;;;4341268;33;20593;-36
2021/04/10 06:05:58;;;;;;;18.87;11.60;;;10.50;57.70;;;;;;4341551;33;20126;-36
2021/04/10 06:08:25;;;;;;;13.57;7.45;;;10.60;57.50;;;;;;4341689;33;20162;-37
2021/04/10 06:10:51;;;;;;;17.62;10.30;;;10.60;57.40;;;;;;4341266;33;20179;-37
2021/04/10 06:13:19;;;;;;;17.30;8.40;;;10.70;57.30;;;;;;4341692;33;20074;-37
2021/04/10 06:15:46;;;;;;;22.92;11.82;;;10.80;57.30;;;;;;4341247;33;20169;-36
2021/04/10 06:18:13;;;;;;;22.77;13.43;;;10.80;56.90;;;;;;4341613;33;20067;-36
2021/04/10 06:20:39;;;;;;;20.65;8.07;;;10.90;56.80;;;;;;4317167;33;20083;-37
2021/04/10 06:23:06;;;;;;;15.23;7.00;;;10.80;57.10;;;;;;4328887;33;20075;-37
2021/04/10 06:25:32;;;;;;;17.15;9.68;;;10.90;57.10;;;;;;4355958;32;20066;-36
2021/04/10 06:28:03;;;;;;;18.12;7.30;;;10.90;57.00;;;;;;4357201;32;20518;-37
2021/04/10 06:30:30;;;;;;;17.67;8.90;;;11.00;57.10;;;;;;4358593;32;20054;-37
2021/04/10 06:32:56;;;;;;;14.27;6.43;;;11.10;56.80;;;;;;4358580;32;20132;-36
2021/04/10 06:35:23;;;;;;;19.20;11.15;;;11.20;56.70;;;;;;4352004;32;20059;-37
2021/04/10 06:37:49;;;;;;;19.60;10.70;;;11.30;55.90;;;;;;4344270;32;20078;-37
2021/04/10 06:40:16;;;;;;;13.23;7.00;;;11.40;55.70;;;;;;4343700;32;20074;-38
2021/04/10 06:42:42;;;;;;;9.98;4.90;;;11.40;56.40;;;;;;4342072;33;20083;-37
2021/04/10 06:45:10;;;;;;;20.12;11.57;;;11.50;55.70;;;;;;4344131;33;20066;-37
2021/04/10 06:47:36;;;;;;;18.65;12.70;;;11.60;55.40;;;;;;4343733;32;20086;-37
2021/04/10 06:50:06;;;;;;;15.75;7.93;;;11.60;55.20;;;;;;4329982;33;20098;-37
2021/04/10 06:52:43;;;;;;;13.02;6.87;;;11.70;55.10;;;;;;4343644;33;20152;-38
2021/04/10 06:55:15;;;;;;;7.37;4.32;;;11.70;55.10;;;;;;4343592;33;20643;-37
2021/04/10 06:58:03;;;;;;;15.75;9.98;;;11.90;55.30;;;;;;4340815;33;20097;-37
2021/04/10 07:00:31;;;;;;;18.23;11.65;;;12.00;55.30;;;;;;4341002;33;20071;-38
2021/04/10 07:02:59;;;;;;;16.05;7.70;;;12.10;54.80;;;;;;4329082;33;20071;-38
2021/04/10 07:05:26;;;;;;;12.85;7.80;;;12.10;54.50;;;;;;4340816;33;20059;-38
2021/04/10 07:07:52;;;;;;;16.67;10.77;;;12.20;54.60;;;;;;4328722;33;20152;-40
2021/04/10 07:10:19;;;;;;;18.23;11.07;;;12.30;54.40;;;;;;4341101;33;20462;-38
2021/04/10 07:12:46;;;;;;;16.70;8.50;;;12.30;54.10;;;;;;4341000;33;20673;-38
2021/04/10 07:15:15;;;;;;;16.20;7.43;;;12.40;54.50;;;;;;4326235;33;20113;-38
2021/04/10 07:17:41;;;;;;;17.52;11.88;;;12.50;54.20;;;;;;4326365;33;20067;-38
2021/04/10 07:20:28;;;;;;;18.35;8.60;;;12.60;54.20;;;;;;4326426;33;20156;-39
2021/04/10 07:23:06;;;;;;;18.37;10.73;;;12.70;54.10;;;;;;4326508;33;20173;-40
2021/04/10 07:25:35;;;;;;;13.73;10.20;;;12.90;53.70;;;;;;4326602;33;20060;-38
2021/04/10 07:28:24;;;;;;;13.98;7.28;;;12.90;53.20;;;;;;4329804;33;20067;-39
2021/04/10 07:31:01;;;;;;;9.75;6.20;;;13.10;53.40;;;;;;4341406;32;20117;-40
2021/04/10 07:33:38;;;;;;;13.15;8.52;;;13.30;53.20;;;;;;4341578;32;20205;-39
2021/04/10 07:36:10;;;;;;;13.73;8.10;;;13.60;52.70;;;;;;4354422;32;20152;-39
2021/04/10 07:38:40;;;;;;;5.70;4.07;;;13.70;51.60;;;;;;4358646;32;20078;-39
2021/04/10 07:41:18;;;;;;;12.73;5.68;;;13.90;51.70;;;;;;4358342;32;20146;-40
2021/04/10 07:43:44;;;;;;;13.85;8.02;;;14.10;51.40;;;;;;4358459;32;20098;-39
2021/04/10 07:46:19;;;;;;;8.90;4.93;;;14.30;50.80;;;;;;4359601;32;20160;-37
2021/04/10 07:49:10;;;;;;;12.68;5.85;;;14.50;50.50;;;;;;4361406;32;20090;-40
2021/04/10 07:51:39;;;;;;;12.82;5.37;;;14.70;50.40;;;;;;4360920;32;20501;-39
2021/04/10 07:54:43;;;;;;;11.95;4.25;;;15.00;50.40;;;;;;4347232;32;20104;-39
2021/04/10 07:57:11;;;;;;;6.62;2.42;;;15.30;50.60;;;;;;4287515;33;20099;-40
2021/04/10 07:59:46;;;;;;;10.55;6.65;;;15.60;49.50;;;;;;4287770;33;20068;-38
2021/04/10 08:02:14;;;;;;;5.90;3.45;;;15.90;48.10;;;;;;4284967;33;20093;-40
2021/04/10 08:04:41;;;;;;;12.73;6.20;;;16.20;48.50;;;;;;4285417;33;20076;-41
2021/04/10 08:07:11;;;;;;;11.88;5.82;;;16.40;46.60;;;;;;4285343;33;20085;-41
2021/04/10 08:09:39;;;;;;;5.47;2.85;;;16.50;46.10;;;;;;4273653;33;20465;-41
2021/04/10 08:12:09;;;;;;;7.53;4.10;;;16.70;46.70;;;;;;4273480;33;20558;-40
2021/04/10 08:14:43;;;;;;;10.82;6.35;;;17.00;46.20;;;;;;4273866;33;20556;-39
2021/04/10 08:17:11;;;;;;;6.40;3.78;;;17.20;45.00;;;;;;4285393;33;20143;-40
2021/04/10 08:19:38;;;;;;;7.25;3.53;;;17.40;44.30;;;;;;4273575;33;20162;-39
2021/04/10 08:22:05;;;;;;;14.38;6.95;;;17.60;45.20;;;;;;4285576;33;20493;-40
2021/04/10 08:24:41;;;;;;;10.48;5.15;;;17.80;43.70;;;;;;4273972;33;20083;-40
2021/04/10 08:27:13;;;;;;;9.57;6.10;;;18.00;44.20;;;;;;4285748;33;20076;-39
2021/04/10 08:29:41;;;;;;;7.20;3.30;;;18.00;43.20;;;;;;4273634;33;20068;-40
2021/04/10 08:32:08;;;;;;;9.82;3.42;;;18.10;43.30;;;;;;4328169;32;20550;-40
2021/04/10 08:34:35;;;;;;;6.93;3.97;;;18.20;43.50;;;;;;4341924;33;20213;-41
2021/04/10 08:37:07;;;;;;;9.55;4.25;;;18.30;42.90;;;;;;4329034;33;20082;-41
2021/04/10 08:39:36;;;;;;;2.60;1.45;;;18.40;42.40;;;;;;4328792;33;20539;-41
2021/04/10 08:42:03;;;;;;;10.70;4.00;;;18.60;43.00;;;;;;4317140;33;20637;-43
2021/04/10 08:44:36;;;;;;;9.75;4.75;;;18.70;42.40;;;;;;4328832;33;20071;-42
2021/04/10 08:47:03;;;;;;;9.85;4.53;;;18.70;42.20;;;;;;4316396;33;20083;-41
2021/04/10 08:49:35;;;;;;;7.90;4.75;;;18.60;41.90;;;;;;4329327;33;20090;-41
2021/04/10 08:52:10;;;;;;;5.80;3.15;;;18.60;42.30;;;;;;4329228;33;20063;-41
2021/04/10 08:54:39;;;;;;;6.40;3.17;;;18.70;42.30;;;;;;4305235;33;20325;-41
2021/04/10 08:57:10;;;;;;;16.40;6.40;;;18.70;42.50;;;;;;4328658;33;20060;-42
2021/04/10 08:59:47;;;;;;;6.85;2.87;;;18.80;42.30;;;;;;4328053;33;20156;-40
2021/04/10 09:02:19;;;;;;;5.90;2.97;;;18.90;42.80;;;;;;4328626;33;20136;-41
2021/04/10 09:05:00;;;;;;;3.53;2.10;;;19.00;42.70;;;;;;4330709;33;20159;-41
2021/04/10 09:07:45;;;;;;;7.15;3.00;;;19.00;42.20;;;;;;4345295;33;20267;-42
2021/04/10 09:10:27;;;;;;;9.95;2.25;;;19.00;42.30;;;;;;4345355;33;20052;-40
2021/04/10 09:13:05;;;;;;;5.18;2.67;;;19.00;42.70;;;;;;4345694;33;20092;-43
2021/04/10 09:15:32;;;;;;;8.55;2.83;;;19.20;42.20;;;;;;4345098;33;20067;-41
2021/04/10 09:18:05;;;;;;;9.82;3.05;;;19.20;42.20;;;;;;4345330;33;20079;-38
2021/04/10 09:20:44;;;;;;;5.25;2.75;;;19.40;42.10;;;;;;4345597;33;20124;-40
2021/04/10 09:23:31;;;;;;;5.35;2.10;;;19.50;41.70;;;;;;4345059;33;20260;-41
2021/04/10 09:26:14;;;;;;;5.93;2.47;;;19.50;41.70;;;;;;4346503;33;20087;-40
2021/04/10 09:28:59;;;;;;;10.57;2.90;;;19.70;41.80;;;;;;4345165;33;20089;-40
2021/04/10 09:31:45;;;;;;;4.30;2.50;;;19.90;41.40;;;;;;4345953;33;20141;-41
2021/04/10 09:34:51;;;;;;;8.50;4.30;;;20.00;40.90;;;;;;4344101;33;20132;-42
2021/04/10 09:37:20;;;;;;;6.90;3.50;;;20.20;41.00;;;;;;4345388;33;20074;-41
2021/04/10 09:40:19;;;;;;;9.85;3.70;;;20.20;40.90;;;;;;4345538;32;20180;-41
2021/04/10 09:42:51;;;;;;;4.30;2.35;;;20.30;40.80;;;;;;4346361;33;20063;-41
2021/04/10 09:45:19;;;;;;;5.68;2.15;;;20.40;40.30;;;;;;4345645;32;20499;-40
2021/04/10 09:47:59;;;;;;;8.30;2.65;;;20.60;40.60;;;;;;4345884;32;20620;-42
2021/04/10 09:50:58;;;;;;;6.55;2.80;;;20.70;40.20;;;;;;4313818;33;20074;-42
2021/04/10 09:53:27;;;;;;;6.62;2.25;;;20.90;40.00;;;;;;4313644;33;20089;-41
2021/04/10 09:56:05;;;;;;;2.40;0.95;;;21.10;39.30;;;;;;4313735;33;20554;-42
2021/04/10 09:58:49;;;;;;;5.37;1.70;;;21.20;39.30;;;;;;4313496;33;20174;-39
2021/04/10 10:01:23;;;;;;;3.40;1.00;;;21.30;38.90;;;;;;4314290;33;20577;-43
2021/04/10 10:03:50;;;;;;;4.12;2.17;;;21.40;38.60;;;;;;4313881;33;20145;-43
2021/04/10 10:06:17;;;;;;;7.35;3.80;;;21.60;38.40;;;;;;4313619;33;20094;-41
2021/04/10 10:08:44;;;;;;;5.57;2.10;;;21.80;38.30;;;;;;4313932;33;20559;-42
2021/04/10 10:11:11;;;;;;;24.08;5.18;;;21.90;37.70;;;;;;4312375;33;20511;-43
2021/04/10 10:13:38;;;;;;;10.57;3.05;;;22.00;37.00;;;;;;4312154;33;20091;-43
2021/04/10 10:16:05;;;;;;;6.93;2.15;;;22.20;37.60;;;;;;4311879;33;20635;-42
2021/04/10 10:18:41;;;;;;;5.85;1.92;;;22.20;36.60;;;;;;4312397;33;20074;-41
2021/04/10 10:21:11;;;;;;;5.60;2.55;;;22.30;37.20;;;;;;4324054;33;20063;-43
2021/04/10 10:23:48;;;;;;;5.20;2.40;;;22.30;36.80;;;;;;4343890;33;20547;-42
2021/04/10 10:26:40;;;;;;;3.40;1.55;;;22.30;36.50;;;;;;4343834;32;20508;-41
2021/04/10 10:29:09;;;;;;;8.77;2.92;;;22.30;37.00;;;;;;4343940;32;20066;-42
2021/04/10 10:31:48;;;;;;;12.52;3.08;;;22.30;37.10;;;;;;4343609;32;20545;-41
2021/04/10 10:34:19;;;;;;;10.27;1.60;;;22.20;37.40;;;;;;4344309;32;20098;-42
2021/04/10 10:36:47;;;;;;;3.78;1.65;;;22.20;37.50;;;;;;4342784;33;20488;-42
2021/04/10 10:39:28;;;;;;;8.40;1.73;;;22.10;37.40;;;;;;4342498;33;20082;-41
2021/04/10 10:41:56;;;;;;;2.40;1.25;;;22.00;37.60;;;;;;4342829;33;20754;-41
2021/04/10 10:44:23;;;;;;;2.05;1.15;;;21.90;37.80;;;;;;4342017;33;20078;-42
2021/04/10 10:47:07;;;;;;;5.10;1.23;;;21.80;37.90;;;;;;4343747;32;20070;-41
2021/04/10 10:49:33;;;;;;;3.25;1.12;;;21.70;38.10;;;;;;4344165;32;20074;-42
2021/04/10 10:52:00;;;;;;;10.48;2.53;;;21.70;37.90;;;;;;4342038;33;20111;-40
2021/04/10 10:54:34;;;;;;;5.00;1.42;;;21.60;38.40;;;;;;4325881;33;20174;-40
2021/04/10 10:57:10;;;;;;;1.48;0.70;;;21.50;38.60;;;;;;4326967;33;20133;-42
2021/04/10 10:59:37;;;;;;;6.82;1.50;;;21.50;38.60;;;;;;4314852;33;20218;-41
2021/04/10 11:02:03;;;;;;;3.28;0.82;;;21.60;38.90;;;;;;4314638;33;20093;-41
2021/04/10 11:04:35;;;;;;;3.55;1.65;;;21.50;38.40;;;;;;4314584;33;20563;-41
2021/04/10 11:07:06;;;;;;;6.45;2.28;;;21.50;38.30;;;;;;4303198;33;20133;-41
2021/04/10 11:09:39;;;;;;;2.28;1.20;;;21.50;38.40;;;;;;4326866;33;20067;-42
2021/04/10 11:12:11;;;;;;;2.87;1.10;;;21.40;38.40;;;;;;4327015;33;20138;-41
2021/04/10 11:14:40;;;;;;;7.07;1.60;;;21.30;38.80;;;;;;4303699;33;20078;-42
2021/04/10 11:17:07;;;;;;;4.72;1.25;;;21.30;38.90;;;;;;4302623;33;20066;-43
2021/04/10 11:19:40;;;;;;;11.15;4.68;;;21.30;38.90;;;;;;4297541;33;20072;-44
2021/04/10 11:22:08;;;;;;;11.02;7.78;;;21.30;38.70;;;;;;4297509;33;20066;-37
2021/04/10 11:24:49;;;;;;;15.00;5.75;;;21.00;38.70;;;;;;4299497;33;20110;-41
2021/04/10 11:27:20;;;;;;;16.90;8.57;;;20.70;39.40;;;;;;4311894;33;20130;-41
2021/04/10 11:29:55;;;;;;;16.62;7.57;;;20.40;39.90;;;;;;4312235;33;20161;-41
2021/04/10 11:32:26;;;;;;;14.90;7.10;;;20.00;40.40;;;;;;4311848;33;20164;-41
2021/04/10 11:34:56;;;;;;;12.63;7.87;;;19.70;40.50;;;;;;4311543;33;20103;-41
2021/04/10 11:37:31;;;;;;;9.75;5.25;;;19.40;40.90;;;;;;4311742;33;20079;-43
2021/04/10 11:40:02;;;;;;;10.25;4.78;;;19.10;41.20;;;;;;4311971;33;20115;-41
2021/04/10 11:42:37;;;;;;;10.95;4.90;;;18.90;41.50;;;;;;4311827;33;20087;-42
2021/04/10 11:45:12;;;;;;;24.52;8.68;;;18.70;42.60;;;;;;4311951;33;20145;-42
2021/04/10 11:47:40;;;;;;;15.75;7.18;;;18.40;43.20;;;;;;4299766;33;20091;-40
2021/04/10 11:50:09;;;;;;;9.20;4.95;;;18.30;43.40;;;;;;4321571;33;20059;-43
2021/04/10 11:52:37;;;;;;;12.80;6.62;;;18.20;43.70;;;;;;4343970;32;20086;-43
2021/04/10 11:55:10;;;;;;;6.97;4.10;;;18.20;43.90;;;;;;4343317;32;20491;-42
2021/04/10 11:57:39;;;;;;;19.25;8.63;;;18.30;44.00;;;;;;4343744;32;20059;-42
2021/04/10 12:00:14;;;;;;;7.47;4.93;;;18.30;44.00;;;;;;4343107;32;20085;-43
2021/04/10 12:02:50;;;;;;;11.18;6.68;;;18.40;44.00;;;;;;4343216;32;20140;-42
2021/04/10 12:05:28;;;;;;;11.38;4.87;;;18.50;43.80;;;;;;4343169;32;20495;-43
2021/04/10 12:08:22;;;;;;;10.10;4.65;;;18.60;43.60;;;;;;4341865;33;20059;-42
2021/04/10 12:10:54;;;;;;;30.48;7.65;;;18.50;43.80;;;;;;4343410;32;20071;-44
2021/04/10 12:13:22;;;;;;;26.17;7.75;;;18.50;43.90;;;;;;4341461;33;20181;-42
2021/04/10 12:15:59;;;;;;;25.98;8.15;;;18.60;43.80;;;;;;4343051;32;20073;-42
2021/04/10 12:18:27;;;;;;;13.40;6.80;;;18.60;43.50;;;;;;4342872;32;20068;-42
2021/04/10 12:20:59;;;;;;;7.20;4.65;;;18.60;43.00;;;;;;4343875;32;20055;-42
2021/04/10 12:23:25;;;;;;;6.03;4.45;;;18.50;42.30;;;;;;4346240;32;20179;-42
2021/04/10 12:25:52;;;;;;;11.20;5.60;;;18.20;42.00;;;;;;4345839;32;20074;-43
2021/04/10 12:28:19;;;;;;;9.95;6.57;;;17.60;42.60;;;;;;4345184;33;20074;-43
2021/04/10 12:30:46;;;;;;;9.05;6.15;;;17.20;43.40;;;;;;4344306;33;20523;-40
2021/04/10 12:33:12;;;;;;;12.37;8.32;;;16.60;44.40;;;;;;4344340;33;20533;-41
2021/04/10 12:35:39;;;;;;;11.95;7.90;;;16.10;45.60;;;;;;4352179;32;20129;-41
2021/04/10 12:38:06;;;;;;;9.18;5.37;;;15.70;46.60;;;;;;4360351;32;20073;-41
2021/04/10 12:40:32;;;;;;;14.38;7.70;;;15.60;47.20;;;;;;4360203;32;20086;-41
2021/04/10 12:42:59;;;;;;;12.15;7.40;;;15.40;47.60;;;;;;4358392;32;20560;-43
2021/04/10 12:45:25;;;;;;;13.77;7.82;;;15.30;47.90;;;;;;4360352;32;20149;-42
2021/04/10 12:47:52;;;;;;;9.52;3.85;;;15.20;47.90;;;;;;4359975;32;20051;-43
2021/04/10 12:50:20;;;;;;;12.63;8.65;;;15.20;48.20;;;;;;4360013;32;20159;-43
2021/04/10 12:52:47;;;;;;;10.57;5.90;;;15.10;48.20;;;;;;4359845;32;20085;-43
2021/04/10 12:55:14;;;;;;;16.37;7.97;;;15.10;48.40;;;;;;4346384;32;20162;-41
2021/04/10 12:57:41;;;;;;;14.27;7.93;;;15.10;48.50;;;;;;4360305;32;20086;-41